sensor_id;sensor_type;location;lat;lon;timestamp;P1;durP1;ratioP1;P2;durP2;ratioP2
53052;SDS011;38934;52.690;6.184;2023-04-03T00:02:21;2.70;;;2.10;;
53052;SDS011;38934;52.690;6.184;2023-04-03T00:04:48;4.18;;;2.13;;
53052;SDS011;38934;52.690;6.184;2023-04-03T00:07:13;2.75;;;2.20;;
53052;SDS011;38934;52.690;6.184;2023-04-03T00:09:41;2.22;;;1.98;;
53052;SDS011;38934;52.690;6.184;2023-04-03T00:12:06;3.25;;;2.42;;
53052;SDS011;38934;52.690;6.184;2023-04-03T00:14:32;3.75;;;2.28;;
53052;SDS011;38934;52.690;6.184;2023-04-03T00:16:58;3.05;;;2.30;;
53052;SDS011;38934;52.690;6.184;2023-04-03T00:19:24;2.10;;;1.90;;
53052;SDS011;38934;52.690;6.184;2023-04-03T00:21:49;2.80;;;2.28;;
53052;SDS011;38934;52.690;6.184;2023-04-03T00:24:15;2.75;;;2.17;;
53052;SDS011;38934;52.690;6.184;2023-04-03T00:26:42;4.97;;;2.50;;
53052;SDS011;38934;52.690;6.184;2023-04-03T00:29:07;3.08;;;2.10;;
53052;SDS011;38934;52.690;6.184;2023-04-03T00:31:33;2.97;;;2.30;;
53052;SDS011;38934;52.690;6.184;2023-04-03T00:34:01;2.78;;;2.30;;
53052;SDS011;38934;52.690;6.184;2023-04-03T00:36:27;4.38;;;2.10;;
53052;SDS011;38934;52.690;6.184;2023-04-03T00:38:54;2.10;;;1.92;;
53052;SDS011;38934;52.690;6.184;2023-04-03T00:41:20;2.35;;;1.85;;
53052;SDS011;38934;52.690;6.184;2023-04-03T00:43:46;3.80;;;2.25;;
53052;SDS011;38934;52.690;6.184;2023-04-03T00:46:19;2.97;;;2.10;;
53052;SDS011;38934;52.690;6.184;2023-04-03T00:48:45;2.47;;;2.28;;
53052;SDS011;38934;52.690;6.184;2023-04-03T00:51:23;2.78;;;1.98;;
53052;SDS011;38934;52.690;6.184;2023-04-03T00:53:54;2.47;;;2.17;;
53052;SDS011;38934;52.690;6.184;2023-04-03T00:56:26;3.47;;;2.40;;
53052;SDS011;38934;52.690;6.184;2023-04-03T00:58:56;3.10;;;2.10;;
53052;SDS011;38934;52.690;6.184;2023-04-03T01:01:37;2.37;;;2.07;;
53052;SDS011;38934;52.690;6.184;2023-04-03T01:04:03;3.90;;;2.50;;
53052;SDS011;38934;52.690;6.184;2023-04-03T01:06:34;4.20;;;2.28;;
53052;SDS011;38934;52.690;6.184;2023-04-03T01:09:07;2.22;;;2.00;;
53052;SDS011;38934;52.690;6.184;2023-04-03T01:11:45;3.28;;;2.05;;
53052;SDS011;38934;52.690;6.184;2023-04-03T01:14:10;4.32;;;2.10;;
53052;SDS011;38934;52.690;6.184;2023-04-03T01:16:36;2.05;;;1.85;;
53052;SDS011;38934;52.690;6.184;2023-04-03T01:19:02;2.67;;;2.08;;
53052;SDS011;38934;52.690;6.184;2023-04-03T01:26:58;2.30;;;2.10;;
53052;SDS011;38934;52.690;6.184;2023-04-03T01:29:24;3.30;;;2.20;;
53052;SDS011;38934;52.690;6.184;2023-04-03T01:31:51;3.60;;;2.20;;
53052;SDS011;38934;52.690;6.184;2023-04-03T01:34:18;2.83;;;2.03;;
53052;SDS011;38934;52.690;6.184;2023-04-03T01:36:44;2.72;;;2.10;;
53052;SDS011;38934;52.690;6.184;2023-04-03T01:39:10;4.57;;;2.20;;
53052;SDS011;38934;52.690;6.184;2023-04-03T01:41:36;2.35;;;2.15;;
53052;SDS011;38934;52.690;6.184;2023-04-03T01:44:02;4.30;;;2.33;;
53052;SDS011;38934;52.690;6.184;2023-04-03T01:46:29;3.75;;;2.47;;
53052;SDS011;38934;52.690;6.184;2023-04-03T01:48:55;3.65;;;2.25;;
53052;SDS011;38934;52.690;6.184;2023-04-03T01:51:20;4.80;;;2.70;;
53052;SDS011;38934;52.690;6.184;2023-04-03T01:53:46;4.55;;;2.63;;
53052;SDS011;38934;52.690;6.184;2023-04-03T01:56:12;3.75;;;2.35;;
53052;SDS011;38934;52.690;6.184;2023-04-03T01:58:37;7.70;;;3.42;;
53052;SDS011;38934;52.690;6.184;2023-04-03T02:01:03;4.47;;;2.85;;
53052;SDS011;38934;52.690;6.184;2023-04-03T02:03:29;4.78;;;2.83;;
53052;SDS011;38934;52.690;6.184;2023-04-03T02:05:55;4.50;;;2.80;;
53052;SDS011;38934;52.690;6.184;2023-04-03T02:08:21;3.35;;;2.42;;
53052;SDS011;38934;52.690;6.184;2023-04-03T02:10:47;4.20;;;2.88;;
53052;SDS011;38934;52.690;6.184;2023-04-03T02:13:14;4.88;;;2.88;;
53052;SDS011;38934;52.690;6.184;2023-04-03T02:15:40;5.95;;;3.50;;
53052;SDS011;38934;52.690;6.184;2023-04-03T02:18:06;4.30;;;2.78;;
53052;SDS011;38934;52.690;6.184;2023-04-03T02:20:31;4.03;;;2.90;;
53052;SDS011;38934;52.690;6.184;2023-04-03T02:22:57;3.35;;;2.40;;
53052;SDS011;38934;52.690;6.184;2023-04-03T02:25:24;3.28;;;2.65;;
53052;SDS011;38934;52.690;6.184;2023-04-03T02:27:51;5.72;;;2.45;;
53052;SDS011;38934;52.690;6.184;2023-04-03T02:30:16;4.88;;;2.80;;
53052;SDS011;38934;52.690;6.184;2023-04-03T02:32:42;3.78;;;2.63;;
53052;SDS011;38934;52.690;6.184;2023-04-03T02:35:09;4.78;;;2.80;;
53052;SDS011;38934;52.690;6.184;2023-04-03T02:37:36;7.93;;;3.45;;
53052;SDS011;38934;52.690;6.184;2023-04-03T02:40:02;7.57;;;3.72;;
53052;SDS011;38934;52.690;6.184;2023-04-03T02:42:28;5.82;;;3.08;;
53052;SDS011;38934;52.690;6.184;2023-04-03T02:44:54;4.93;;;2.95;;
53052;SDS011;38934;52.690;6.184;2023-04-03T02:47:20;5.68;;;3.38;;
53052;SDS011;38934;52.690;6.184;2023-04-03T02:49:46;5.82;;;3.33;;
53052;SDS011;38934;52.690;6.184;2023-04-03T02:52:12;8.05;;;4.30;;
53052;SDS011;38934;52.690;6.184;2023-04-03T02:54:38;4.63;;;3.42;;
53052;SDS011;38934;52.690;6.184;2023-04-03T02:57:04;6.72;;;3.30;;
53052;SDS011;38934;52.690;6.184;2023-04-03T02:59:30;3.88;;;3.25;;
53052;SDS011;38934;52.690;6.184;2023-04-03T03:01:56;4.68;;;2.80;;
53052;SDS011;38934;52.690;6.184;2023-04-03T03:04:21;4.13;;;2.88;;
53052;SDS011;38934;52.690;6.184;2023-04-03T03:06:47;3.35;;;2.78;;
53052;SDS011;38934;52.690;6.184;2023-04-03T03:09:13;3.40;;;2.50;;
53052;SDS011;38934;52.690;6.184;2023-04-03T03:11:39;3.58;;;2.90;;
53052;SDS011;38934;52.690;6.184;2023-04-03T03:14:05;4.20;;;2.78;;
53052;SDS011;38934;52.690;6.184;2023-04-03T03:16:31;5.72;;;2.70;;
53052;SDS011;38934;52.690;6.184;2023-04-03T03:18:56;5.53;;;3.10;;
53052;SDS011;38934;52.690;6.184;2023-04-03T03:21:22;5.00;;;2.95;;
53052;SDS011;38934;52.690;6.184;2023-04-03T03:23:48;8.40;;;3.28;;
53052;SDS011;38934;52.690;6.184;2023-04-03T03:26:13;4.95;;;3.10;;
53052;SDS011;38934;52.690;6.184;2023-04-03T03:28:39;4.53;;;2.92;;
53052;SDS011;38934;52.690;6.184;2023-04-03T03:31:06;7.43;;;3.28;;
53052;SDS011;38934;52.690;6.184;2023-04-03T03:33:32;3.90;;;3.15;;
53052;SDS011;38934;52.690;6.184;2023-04-03T03:35:59;5.28;;;3.20;;
53052;SDS011;38934;52.690;6.184;2023-04-03T03:38:25;5.38;;;3.15;;
53052;SDS011;38934;52.690;6.184;2023-04-03T03:40:51;4.28;;;3.08;;
53052;SDS011;38934;52.690;6.184;2023-04-03T03:43:17;6.30;;;3.58;;
53052;SDS011;38934;52.690;6.184;2023-04-03T03:45:43;8.00;;;3.05;;
53052;SDS011;38934;52.690;6.184;2023-04-03T03:48:10;6.80;;;3.42;;
53052;SDS011;38934;52.690;6.184;2023-04-03T03:50:36;8.18;;;3.55;;
53052;SDS011;38934;52.690;6.184;2023-04-03T03:53:02;4.63;;;3.40;;
53052;SDS011;38934;52.690;6.184;2023-04-03T03:55:28;6.68;;;3.25;;
53052;SDS011;38934;52.690;6.184;2023-04-03T03:57:53;5.97;;;3.28;;
53052;SDS011;38934;52.690;6.184;2023-04-03T04:00:19;7.50;;;3.22;;
53052;SDS011;38934;52.690;6.184;2023-04-03T04:02:45;6.85;;;3.90;;
53052;SDS011;38934;52.690;6.184;2023-04-03T04:05:10;6.60;;;3.70;;
53052;SDS011;38934;52.690;6.184;2023-04-03T04:07:36;6.32;;;3.50;;
53052;SDS011;38934;52.690;6.184;2023-04-03T04:10:02;5.40;;;3.67;;
53052;SDS011;38934;52.690;6.184;2023-04-03T04:12:28;5.50;;;3.72;;
53052;SDS011;38934;52.690;6.184;2023-04-03T04:14:54;6.32;;;3.90;;
53052;SDS011;38934;52.690;6.184;2023-04-03T04:17:20;8.00;;;4.00;;
53052;SDS011;38934;52.690;6.184;2023-04-03T04:19:46;5.63;;;3.97;;
53052;SDS011;38934;52.690;6.184;2023-04-03T04:22:11;5.80;;;3.88;;
53052;SDS011;38934;52.690;6.184;2023-04-03T04:24:37;5.40;;;3.85;;
53052;SDS011;38934;52.690;6.184;2023-04-03T04:27:03;7.43;;;3.60;;
53052;SDS011;38934;52.690;6.184;2023-04-03T04:29:28;10.75;;;4.50;;
53052;SDS011;38934;52.690;6.184;2023-04-03T04:31:54;6.88;;;4.38;;
53052;SDS011;38934;52.690;6.184;2023-04-03T04:34:19;6.70;;;4.30;;
53052;SDS011;38934;52.690;6.184;2023-04-03T04:36:45;8.10;;;3.97;;
53052;SDS011;38934;52.690;6.184;2023-04-03T04:39:11;6.68;;;3.90;;
53052;SDS011;38934;52.690;6.184;2023-04-03T04:41:36;7.13;;;4.00;;
53052;SDS011;38934;52.690;6.184;2023-04-03T04:44:02;5.57;;;3.50;;
53052;SDS011;38934;52.690;6.184;2023-04-03T04:46:27;8.60;;;4.60;;
53052;SDS011;38934;52.690;6.184;2023-04-03T04:48:53;7.57;;;4.72;;
53052;SDS011;38934;52.690;6.184;2023-04-03T04:51:19;9.30;;;4.43;;
53052;SDS011;38934;52.690;6.184;2023-04-03T04:53:45;6.80;;;3.90;;
53052;SDS011;38934;52.690;6.184;2023-04-03T04:56:10;8.98;;;4.18;;
53052;SDS011;38934;52.690;6.184;2023-04-03T04:58:36;6.78;;;3.45;;
53052;SDS011;38934;52.690;6.184;2023-04-03T05:01:03;7.20;;;4.55;;
53052;SDS011;38934;52.690;6.184;2023-04-03T05:03:30;6.60;;;3.85;;
53052;SDS011;38934;52.690;6.184;2023-04-03T05:05:56;6.65;;;4.05;;
53052;SDS011;38934;52.690;6.184;2023-04-03T05:08:22;6.20;;;4.00;;
53052;SDS011;38934;52.690;6.184;2023-04-03T05:10:48;4.15;;;3.22;;
53052;SDS011;38934;52.690;6.184;2023-04-03T05:13:14;8.73;;;3.67;;
53052;SDS011;38934;52.690;6.184;2023-04-03T05:15:39;5.55;;;3.40;;
53052;SDS011;38934;52.690;6.184;2023-04-03T05:18:05;4.95;;;3.42;;
53052;SDS011;38934;52.690;6.184;2023-04-03T05:20:32;6.78;;;3.33;;
53052;SDS011;38934;52.690;6.184;2023-04-03T05:22:58;6.13;;;3.92;;
53052;SDS011;38934;52.690;6.184;2023-04-03T05:25:24;5.57;;;3.55;;
53052;SDS011;38934;52.690;6.184;2023-04-03T05:27:50;8.25;;;4.15;;
53052;SDS011;38934;52.690;6.184;2023-04-03T05:30:16;6.10;;;4.07;;
53052;SDS011;38934;52.690;6.184;2023-04-03T05:32:41;5.85;;;3.85;;
53052;SDS011;38934;52.690;6.184;2023-04-03T05:35:07;5.13;;;3.40;;
53052;SDS011;38934;52.690;6.184;2023-04-03T05:37:33;6.68;;;3.55;;
53052;SDS011;38934;52.690;6.184;2023-04-03T05:39:59;10.25;;;3.72;;
53052;SDS011;38934;52.690;6.184;2023-04-03T05:42:25;5.22;;;3.42;;
53052;SDS011;38934;52.690;6.184;2023-04-03T05:44:51;7.47;;;4.07;;
53052;SDS011;38934;52.690;6.184;2023-04-03T05:47:17;7.55;;;3.50;;
53052;SDS011;38934;52.690;6.184;2023-04-03T05:49:43;7.47;;;3.85;;
53052;SDS011;38934;52.690;6.184;2023-04-03T05:52:28;6.70;;;3.92;;
53052;SDS011;38934;52.690;6.184;2023-04-03T05:54:56;10.45;;;3.70;;
53052;SDS011;38934;52.690;6.184;2023-04-03T05:57:22;6.95;;;3.80;;
53052;SDS011;38934;52.690;6.184;2023-04-03T05:59:48;8.57;;;3.97;;
53052;SDS011;38934;52.690;6.184;2023-04-03T06:02:18;7.15;;;3.67;;
53052;SDS011;38934;52.690;6.184;2023-04-03T06:04:46;5.95;;;3.75;;
53052;SDS011;38934;52.690;6.184;2023-04-03T06:07:19;8.70;;;3.67;;
53052;SDS011;38934;52.690;6.184;2023-04-03T06:09:48;5.65;;;3.58;;
53052;SDS011;38934;52.690;6.184;2023-04-03T06:12:14;8.57;;;3.88;;
53052;SDS011;38934;52.690;6.184;2023-04-03T06:14:40;9.48;;;4.10;;
53052;SDS011;38934;52.690;6.184;2023-04-03T06:17:06;7.47;;;4.38;;
53052;SDS011;38934;52.690;6.184;2023-04-03T06:19:33;5.45;;;3.67;;
53052;SDS011;38934;52.690;6.184;2023-04-03T06:21:59;10.45;;;4.10;;
53052;SDS011;38934;52.690;6.184;2023-04-03T06:24:25;8.00;;;4.13;;
53052;SDS011;38934;52.690;6.184;2023-04-03T06:26:51;6.03;;;3.47;;
53052;SDS011;38934;52.690;6.184;2023-04-03T06:29:18;7.78;;;3.80;;
53052;SDS011;38934;52.690;6.184;2023-04-03T06:31:44;7.15;;;3.70;;
53052;SDS011;38934;52.690;6.184;2023-04-03T06:34:10;4.63;;;3.20;;
53052;SDS011;38934;52.690;6.184;2023-04-03T06:36:37;5.00;;;3.30;;
53052;SDS011;38934;52.690;6.184;2023-04-03T06:39:03;4.97;;;3.45;;
53052;SDS011;38934;52.690;6.184;2023-04-03T06:41:29;7.03;;;3.42;;
53052;SDS011;38934;52.690;6.184;2023-04-03T06:43:55;6.32;;;3.65;;
53052;SDS011;38934;52.690;6.184;2023-04-03T06:46:23;9.57;;;3.50;;
53052;SDS011;38934;52.690;6.184;2023-04-03T06:48:50;6.95;;;3.45;;
53052;SDS011;38934;52.690;6.184;2023-04-03T06:51:20;7.35;;;3.90;;
53052;SDS011;38934;52.690;6.184;2023-04-03T06:53:48;5.45;;;3.28;;
53052;SDS011;38934;52.690;6.184;2023-04-03T06:56:14;8.18;;;3.30;;
53052;SDS011;38934;52.690;6.184;2023-04-03T06:58:40;4.35;;;3.30;;
53052;SDS011;38934;52.690;6.184;2023-04-03T07:01:07;5.75;;;3.70;;
53052;SDS011;38934;52.690;6.184;2023-04-03T07:03:34;7.55;;;3.15;;
53052;SDS011;38934;52.690;6.184;2023-04-03T07:06:01;8.02;;;3.08;;
53052;SDS011;38934;52.690;6.184;2023-04-03T07:08:26;7.28;;;3.22;;
53052;SDS011;38934;52.690;6.184;2023-04-03T07:10:52;5.53;;;3.05;;
53052;SDS011;38934;52.690;6.184;2023-04-03T07:13:17;4.28;;;3.22;;
53052;SDS011;38934;52.690;6.184;2023-04-03T07:15:43;7.93;;;3.72;;
53052;SDS011;38934;52.690;6.184;2023-04-03T07:18:09;7.82;;;2.90;;
53052;SDS011;38934;52.690;6.184;2023-04-03T07:20:34;6.50;;;3.00;;
53052;SDS011;38934;52.690;6.184;2023-04-03T07:23:00;5.20;;;3.13;;
53052;SDS011;38934;52.690;6.184;2023-04-03T07:25:27;7.38;;;3.03;;
53052;SDS011;38934;52.690;6.184;2023-04-03T07:27:53;6.45;;;2.95;;
53052;SDS011;38934;52.690;6.184;2023-04-03T07:30:19;5.78;;;3.20;;
53052;SDS011;38934;52.690;6.184;2023-04-03T07:32:45;6.20;;;2.70;;
53052;SDS011;38934;52.690;6.184;2023-04-03T07:35:11;6.93;;;2.78;;
53052;SDS011;38934;52.690;6.184;2023-04-03T07:37:37;3.97;;;2.55;;
53052;SDS011;38934;52.690;6.184;2023-04-03T07:40:02;7.07;;;2.90;;
53052;SDS011;38934;52.690;6.184;2023-04-03T07:42:29;8.30;;;3.78;;
53052;SDS011;38934;52.690;6.184;2023-04-03T07:44:55;7.13;;;2.72;;
53052;SDS011;38934;52.690;6.184;2023-04-03T07:47:21;4.68;;;2.45;;
53052;SDS011;38934;52.690;6.184;2023-04-03T07:49:47;4.35;;;2.63;;
53052;SDS011;38934;52.690;6.184;2023-04-03T07:52:13;4.55;;;2.58;;
53052;SDS011;38934;52.690;6.184;2023-04-03T07:54:40;3.85;;;2.20;;
53052;SDS011;38934;52.690;6.184;2023-04-03T07:57:06;5.30;;;2.47;;
53052;SDS011;38934;52.690;6.184;2023-04-03T07:59:32;5.47;;;2.47;;
53052;SDS011;38934;52.690;6.184;2023-04-03T08:01:57;2.92;;;2.47;;
53052;SDS011;38934;52.690;6.184;2023-04-03T08:04:23;3.63;;;2.63;;
53052;SDS011;38934;52.690;6.184;2023-04-03T08:06:50;4.38;;;2.33;;
53052;SDS011;38934;52.690;6.184;2023-04-03T08:09:16;6.40;;;2.25;;
53052;SDS011;38934;52.690;6.184;2023-04-03T08:11:42;4.80;;;2.28;;
53052;SDS011;38934;52.690;6.184;2023-04-03T08:14:09;2.97;;;2.45;;
53052;SDS011;38934;52.690;6.184;2023-04-03T08:16:40;4.65;;;2.63;;
53052;SDS011;38934;52.690;6.184;2023-04-03T08:19:06;5.20;;;2.35;;
53052;SDS011;38934;52.690;6.184;2023-04-03T08:21:32;3.72;;;2.30;;
53052;SDS011;38934;52.690;6.184;2023-04-03T08:23:58;3.85;;;2.10;;
53052;SDS011;38934;52.690;6.184;2023-04-03T08:26:24;4.63;;;2.30;;
53052;SDS011;38934;52.690;6.184;2023-04-03T08:28:51;6.88;;;2.20;;
53052;SDS011;38934;52.690;6.184;2023-04-03T08:31:18;3.50;;;2.17;;
53052;SDS011;38934;52.690;6.184;2023-04-03T08:33:45;4.30;;;1.88;;
53052;SDS011;38934;52.690;6.184;2023-04-03T08:36:18;2.42;;;1.80;;
53052;SDS011;38934;52.690;6.184;2023-04-03T08:38:49;4.22;;;1.90;;
53052;SDS011;38934;52.690;6.184;2023-04-03T08:44:01;3.58;;;2.40;;
53052;SDS011;38934;52.690;6.184;2023-04-03T08:49:38;2.50;;;1.90;;
53052;SDS011;38934;52.690;6.184;2023-04-03T08:52:15;2.15;;;1.95;;
53052;SDS011;38934;52.690;6.184;2023-04-03T08:54:59;3.25;;;1.88;;
53052;SDS011;38934;52.690;6.184;2023-04-03T08:57:30;3.38;;;1.83;;
53052;SDS011;38934;52.690;6.184;2023-04-03T09:04:56;3.08;;;2.05;;
53052;SDS011;38934;52.690;6.184;2023-04-03T09:07:33;4.55;;;2.00;;
53052;SDS011;38934;52.690;6.184;2023-04-03T09:10:04;1.92;;;1.73;;
53052;SDS011;38934;52.690;6.184;2023-04-03T09:12:34;4.93;;;2.00;;
53052;SDS011;38934;52.690;6.184;2023-04-03T09:26:02;2.30;;;1.45;;
53052;SDS011;38934;52.690;6.184;2023-04-03T09:28:35;2.47;;;1.75;;
53052;SDS011;38934;52.690;6.184;2023-04-03T09:31:10;4.45;;;1.63;;
53052;SDS011;38934;52.690;6.184;2023-04-03T09:33:52;3.17;;;1.80;;
53052;SDS011;38934;52.690;6.184;2023-04-03T09:39:17;3.60;;;1.70;;
53052;SDS011;38934;52.690;6.184;2023-04-03T09:44:24;3.67;;;1.58;;
53052;SDS011;38934;52.690;6.184;2023-04-03T09:52:37;2.65;;;1.60;;
53052;SDS011;38934;52.690;6.184;2023-04-03T09:55:06;4.25;;;1.52;;
53052;SDS011;38934;52.690;6.184;2023-04-03T09:57:33;1.75;;;1.40;;
53052;SDS011;38934;52.690;6.184;2023-04-03T10:00:00;1.58;;;1.30;;
53052;SDS011;38934;52.690;6.184;2023-04-03T10:02:39;1.50;;;1.40;;
53052;SDS011;38934;52.690;6.184;2023-04-03T10:05:25;2.42;;;1.60;;
53052;SDS011;38934;52.690;6.184;2023-04-03T10:10:43;2.55;;;1.30;;
53052;SDS011;38934;52.690;6.184;2023-04-03T10:15:43;1.42;;;1.33;;
53052;SDS011;38934;52.690;6.184;2023-04-03T10:18:30;1.92;;;1.48;;
53052;SDS011;38934;52.690;6.184;2023-04-03T10:21:11;2.42;;;1.35;;
53052;SDS011;38934;52.690;6.184;2023-04-03T10:31:46;1.50;;;1.40;;
53052;SDS011;38934;52.690;6.184;2023-04-03T10:34:42;1.38;;;1.30;;
53052;SDS011;38934;52.690;6.184;2023-04-03T10:40:24;1.52;;;1.40;;
53052;SDS011;38934;52.690;6.184;2023-04-03T11:04:21;1.55;;;1.23;;
53052;SDS011;38934;52.690;6.184;2023-04-03T11:07:01;2.13;;;1.55;;
53052;SDS011;38934;52.690;6.184;2023-04-03T11:09:40;2.42;;;1.40;;
53052;SDS011;38934;52.690;6.184;2023-04-03T11:14:40;2.72;;;1.40;;
53052;SDS011;38934;52.690;6.184;2023-04-03T11:19:44;2.58;;;1.27;;
53052;SDS011;38934;52.690;6.184;2023-04-03T11:22:23;1.98;;;1.17;;
53052;SDS011;38934;52.690;6.184;2023-04-03T11:27:40;3.35;;;1.50;;
53052;SDS011;38934;52.690;6.184;2023-04-03T11:30:19;2.85;;;1.50;;
53052;SDS011;38934;52.690;6.184;2023-04-03T11:35:44;1.83;;;1.45;;
53052;SDS011;38934;52.690;6.184;2023-04-03T11:38:20;1.83;;;1.30;;
53052;SDS011;38934;52.690;6.184;2023-04-03T11:40:51;2.40;;;1.50;;
53052;SDS011;38934;52.690;6.184;2023-04-03T11:43:25;2.35;;;1.40;;
53052;SDS011;38934;52.690;6.184;2023-04-03T11:45:56;1.55;;;1.45;;
53052;SDS011;38934;52.690;6.184;2023-04-03T11:50:56;1.63;;;1.45;;
53052;SDS011;38934;52.690;6.184;2023-04-03T11:53:34;1.40;;;1.30;;
53052;SDS011;38934;52.690;6.184;2023-04-03T12:01:45;2.90;;;1.70;;
53052;SDS011;38934;52.690;6.184;2023-04-03T12:04:14;1.73;;;1.50;;
53052;SDS011;38934;52.690;6.184;2023-04-03T12:06:49;3.72;;;1.80;;
53052;SDS011;38934;52.690;6.184;2023-04-03T12:14:53;1.70;;;1.30;;
53052;SDS011;38934;52.690;6.184;2023-04-03T12:17:20;1.90;;;1.40;;
53052;SDS011;38934;52.690;6.184;2023-04-03T12:19:51;1.65;;;1.40;;
53052;SDS011;38934;52.690;6.184;2023-04-03T12:22:19;4.03;;;1.45;;
53052;SDS011;38934;52.690;6.184;2023-04-03T12:24:47;2.15;;;1.50;;
53052;SDS011;38934;52.690;6.184;2023-04-03T12:27:22;1.40;;;1.25;;
53052;SDS011;38934;52.690;6.184;2023-04-03T12:35:21;3.03;;;1.40;;
53052;SDS011;38934;52.690;6.184;2023-04-03T12:44:04;2.03;;;1.50;;
53052;SDS011;38934;52.690;6.184;2023-04-03T12:46:55;2.80;;;1.40;;
53052;SDS011;38934;52.690;6.184;2023-04-03T12:51:54;2.05;;;1.50;;
53052;SDS011;38934;52.690;6.184;2023-04-03T12:54:36;3.85;;;1.60;;
53052;SDS011;38934;52.690;6.184;2023-04-03T12:57:12;2.50;;;1.52;;
53052;SDS011;38934;52.690;6.184;2023-04-03T12:59:45;2.50;;;1.50;;
53052;SDS011;38934;52.690;6.184;2023-04-03T13:04:51;2.30;;;1.50;;
53052;SDS011;38934;52.690;6.184;2023-04-03T13:07:22;2.63;;;1.60;;
53052;SDS011;38934;52.690;6.184;2023-04-03T13:09:56;4.15;;;1.60;;
53052;SDS011;38934;52.690;6.184;2023-04-03T13:12:28;1.77;;;1.40;;
53052;SDS011;38934;52.690;6.184;2023-04-03T13:14:55;3.05;;;1.42;;
53052;SDS011;38934;52.690;6.184;2023-04-03T13:17:23;3.05;;;1.55;;
53052;SDS011;38934;52.690;6.184;2023-04-03T13:19:49;2.15;;;1.65;;
53052;SDS011;38934;52.690;6.184;2023-04-03T13:24:53;1.70;;;1.50;;
53052;SDS011;38934;52.690;6.184;2023-04-03T13:27:22;2.00;;;1.48;;
53052;SDS011;38934;52.690;6.184;2023-04-03T13:29:49;3.03;;;1.40;;
53052;SDS011;38934;52.690;6.184;2023-04-03T13:32:19;2.25;;;1.65;;
53052;SDS011;38934;52.690;6.184;2023-04-03T13:34:47;3.95;;;1.70;;
53052;SDS011;38934;52.690;6.184;2023-04-03T13:37:23;4.95;;;2.17;;
53052;SDS011;38934;52.690;6.184;2023-04-03T13:39:59;1.75;;;1.48;;
53052;SDS011;38934;52.690;6.184;2023-04-03T13:42:31;3.05;;;1.60;;
53052;SDS011;38934;52.690;6.184;2023-04-03T13:47:43;2.80;;;1.60;;
53052;SDS011;38934;52.690;6.184;2023-04-03T13:50:21;2.78;;;1.60;;
53052;SDS011;38934;52.690;6.184;2023-04-03T13:52:54;2.72;;;1.48;;
53052;SDS011;38934;52.690;6.184;2023-04-03T13:55:32;3.00;;;1.60;;
53052;SDS011;38934;52.690;6.184;2023-04-03T13:58:01;3.30;;;2.00;;
53052;SDS011;38934;52.690;6.184;2023-04-03T14:00:48;4.28;;;1.88;;
53052;SDS011;38934;52.690;6.184;2023-04-03T14:05:49;3.63;;;1.60;;
53052;SDS011;38934;52.690;6.184;2023-04-03T14:08:15;3.05;;;1.60;;
53052;SDS011;38934;52.690;6.184;2023-04-03T14:10:42;2.85;;;2.08;;
53052;SDS011;38934;52.690;6.184;2023-04-03T14:13:10;3.50;;;1.73;;
53052;SDS011;38934;52.690;6.184;2023-04-03T14:15:38;2.97;;;1.67;;
53052;SDS011;38934;52.690;6.184;2023-04-03T14:18:04;4.32;;;1.90;;
53052;SDS011;38934;52.690;6.184;2023-04-03T14:20:29;3.90;;;1.77;;
53052;SDS011;38934;52.690;6.184;2023-04-03T14:22:55;4.57;;;2.60;;
53052;SDS011;38934;52.690;6.184;2023-04-03T14:25:21;3.38;;;1.80;;
53052;SDS011;38934;52.690;6.184;2023-04-03T14:27:49;2.10;;;1.70;;
53052;SDS011;38934;52.690;6.184;2023-04-03T14:32:52;3.38;;;1.60;;
53052;SDS011;38934;52.690;6.184;2023-04-03T14:35:18;5.35;;;2.03;;
53052;SDS011;38934;52.690;6.184;2023-04-03T14:37:45;5.47;;;2.30;;
53052;SDS011;38934;52.690;6.184;2023-04-03T14:40:16;2.65;;;1.70;;
53052;SDS011;38934;52.690;6.184;2023-04-03T14:42:44;4.35;;;1.80;;
53052;SDS011;38934;52.690;6.184;2023-04-03T14:45:13;3.25;;;1.92;;
53052;SDS011;38934;52.690;6.184;2023-04-03T14:47:44;2.00;;;1.70;;
53052;SDS011;38934;52.690;6.184;2023-04-03T14:50:16;3.72;;;1.83;;
53052;SDS011;38934;52.690;6.184;2023-04-03T14:52:46;5.18;;;2.08;;
53052;SDS011;38934;52.690;6.184;2023-04-03T14:55:16;2.70;;;1.95;;
53052;SDS011;38934;52.690;6.184;2023-04-03T14:57:44;2.53;;;1.85;;
53052;SDS011;38934;52.690;6.184;2023-04-03T15:00:12;3.45;;;1.88;;
53052;SDS011;38934;52.690;6.184;2023-04-03T15:02:40;5.00;;;1.77;;
53052;SDS011;38934;52.690;6.184;2023-04-03T15:05:07;3.50;;;1.90;;
53052;SDS011;38934;52.690;6.184;2023-04-03T15:07:35;2.35;;;1.65;;
53052;SDS011;38934;52.690;6.184;2023-04-03T15:10:05;4.55;;;2.00;;
53052;SDS011;38934;52.690;6.184;2023-04-03T15:12:43;3.55;;;1.92;;
53052;SDS011;38934;52.690;6.184;2023-04-03T15:15:10;3.22;;;1.77;;
53052;SDS011;38934;52.690;6.184;2023-04-03T15:17:35;3.05;;;1.98;;
53052;SDS011;38934;52.690;6.184;2023-04-03T15:20:02;3.28;;;1.85;;
53052;SDS011;38934;52.690;6.184;2023-04-03T15:22:28;3.40;;;1.80;;
53052;SDS011;38934;52.690;6.184;2023-04-03T15:24:54;4.05;;;2.08;;
53052;SDS011;38934;52.690;6.184;2023-04-03T15:27:20;3.35;;;2.10;;
53052;SDS011;38934;52.690;6.184;2023-04-03T15:29:45;3.33;;;2.10;;
53052;SDS011;38934;52.690;6.184;2023-04-03T15:32:11;3.63;;;1.85;;
53052;SDS011;38934;52.690;6.184;2023-04-03T15:34:38;4.47;;;1.90;;
53052;SDS011;38934;52.690;6.184;2023-04-03T15:37:04;2.90;;;2.00;;
53052;SDS011;38934;52.690;6.184;2023-04-03T15:39:30;3.88;;;1.85;;
53052;SDS011;38934;52.690;6.184;2023-04-03T15:41:56;2.50;;;1.88;;
53052;SDS011;38934;52.690;6.184;2023-04-03T15:44:24;2.58;;;1.60;;
53052;SDS011;38934;52.690;6.184;2023-04-03T15:46:50;2.55;;;1.92;;
53052;SDS011;38934;52.690;6.184;2023-04-03T15:49:17;3.35;;;2.08;;
53052;SDS011;38934;52.690;6.184;2023-04-03T15:51:43;2.95;;;2.05;;
53052;SDS011;38934;52.690;6.184;2023-04-03T15:54:09;2.13;;;1.60;;
53052;SDS011;38934;52.690;6.184;2023-04-03T15:56:35;4.32;;;1.83;;
53052;SDS011;38934;52.690;6.184;2023-04-03T15:59:00;3.92;;;2.00;;
53052;SDS011;38934;52.690;6.184;2023-04-03T16:01:26;3.15;;;2.05;;
53052;SDS011;38934;52.690;6.184;2023-04-03T16:03:52;2.65;;;2.00;;
53052;SDS011;38934;52.690;6.184;2023-04-03T16:06:18;3.40;;;2.20;;
53052;SDS011;38934;52.690;6.184;2023-04-03T16:08:44;3.15;;;1.98;;
53052;SDS011;38934;52.690;6.184;2023-04-03T16:11:11;5.07;;;1.90;;
53052;SDS011;38934;52.690;6.184;2023-04-03T16:13:37;2.85;;;2.05;;
53052;SDS011;38934;52.690;6.184;2023-04-03T16:16:02;3.75;;;2.20;;
53052;SDS011;38934;52.690;6.184;2023-04-03T16:18:29;2.97;;;1.98;;
53052;SDS011;38934;52.690;6.184;2023-04-03T16:20:55;3.03;;;1.80;;
53052;SDS011;38934;52.690;6.184;2023-04-03T16:23:21;2.75;;;1.92;;
53052;SDS011;38934;52.690;6.184;2023-04-03T16:25:47;1.70;;;1.60;;
53052;SDS011;38934;52.690;6.184;2023-04-03T16:28:14;6.45;;;2.13;;
53052;SDS011;38934;52.690;6.184;2023-04-03T16:30:42;2.00;;;1.80;;
53052;SDS011;38934;52.690;6.184;2023-04-03T16:33:10;2.22;;;2.03;;
53052;SDS011;38934;52.690;6.184;2023-04-03T16:35:37;5.00;;;2.00;;
53052;SDS011;38934;52.690;6.184;2023-04-03T16:38:03;2.47;;;1.80;;
53052;SDS011;38934;52.690;6.184;2023-04-03T16:40:29;2.90;;;2.00;;
53052;SDS011;38934;52.690;6.184;2023-04-03T16:42:55;2.45;;;2.00;;
53052;SDS011;38934;52.690;6.184;2023-04-03T16:45:20;4.80;;;2.08;;
53052;SDS011;38934;52.690;6.184;2023-04-03T16:47:46;4.43;;;2.00;;
53052;SDS011;38934;52.690;6.184;2023-04-03T16:50:12;3.22;;;2.10;;
53052;SDS011;38934;52.690;6.184;2023-04-03T16:52:37;5.60;;;2.13;;
53052;SDS011;38934;52.690;6.184;2023-04-03T16:55:03;3.33;;;2.00;;
53052;SDS011;38934;52.690;6.184;2023-04-03T16:57:29;3.00;;;1.85;;
53052;SDS011;38934;52.690;6.184;2023-04-03T16:59:55;3.47;;;2.22;;
53052;SDS011;38934;52.690;6.184;2023-04-03T17:02:21;3.58;;;2.00;;